EJM832 KBDL-KLEX
Flight info
| Callsign | EJM832 |
|---|---|
| Flight time | N/A |
| Altitude | 38000 |
| Route | VEERS PWL BASYE Q406 BWZ J6 LRP/N0471F320 J6 HVQ |
| Aircraft | CL60/M-SBDE1E2E3FGHIJ1J4J5J7M3RWXYZ/LB1V1D1 |
Departure
| Time | N/A |
|---|---|
| Airport | Bradley International Airport (KBDL) |
Arrival
| Time | 2026-04-20 04:42 |
|---|---|
| Airport | Blue Grass Airport (KLEX) |
| Time | Latitude | Longitude | Altitude | Speed | Heading |
|---|---|---|---|---|---|
| 2026-04-20 04:32 | 38.22288 | -84.13158 | 7300 ft | 242 kts | 267° |
| 2026-04-20 04:33 | 38.22154 | -84.15308 | 6958 ft | 241 kts | 267° |
| 2026-04-20 04:33 | 38.22026 | -84.17423 | 6650 ft | 241 kts | 267° |
| 2026-04-20 04:33 | 38.21891 | -84.19523 | 6341 ft | 239 kts | 267° |
| 2026-04-20 04:33 | 38.21753 | -84.21653 | 6002 ft | 241 kts | 267° |
| 2026-04-20 04:34 | 38.21618 | -84.23749 | 5704 ft | 242 kts | 266° |
| 2026-04-20 04:34 | 38.21479 | -84.25897 | 5356 ft | 246 kts | 267° |
| 2026-04-20 04:34 | 38.21341 | -84.28065 | 5050 ft | 246 kts | 266° |
| 2026-04-20 04:34 | 38.21197 | -84.30244 | 4703 ft | 249 kts | 266° |
| 2026-04-20 04:35 | 38.21052 | -84.32443 | 4381 ft | 251 kts | 266° |
| 2026-04-20 04:35 | 38.20910 | -84.34666 | 4034 ft | 253 kts | 266° |
| 2026-04-20 04:35 | 38.20769 | -84.36880 | 3711 ft | 254 kts | 265° |
| 2026-04-20 04:35 | 38.20632 | -84.39138 | 3359 ft | 255 kts | 266° |
| 2026-04-20 04:36 | 38.19562 | -84.43079 | 3008 ft | 227 kts | 229° |
| 2026-04-20 04:36 | 38.18312 | -84.44441 | 2994 ft | 245 kts | 221° |
| 2026-04-20 04:36 | 38.16974 | -84.45689 | 2989 ft | 227 kts | 221° |
| 2026-04-20 04:37 | 38.15815 | -84.46841 | 3037 ft | 193 kts | 225° |
| 2026-04-20 04:37 | 38.14865 | -84.47870 | 3039 ft | 163 kts | 227° |
| 2026-04-20 04:37 | 38.14088 | -84.48743 | 3045 ft | 138 kts | 229° |
| 2026-04-20 04:37 | 38.13432 | -84.49487 | 3036 ft | 119 kts | 229° |
| 2026-04-20 04:38 | 38.12830 | -84.50189 | 3009 ft | 116 kts | 231° |
| 2026-04-20 04:38 | 38.12232 | -84.50883 | 2989 ft | 116 kts | 230° |
| 2026-04-20 04:38 | 38.11614 | -84.51570 | 2943 ft | 119 kts | 229° |
| 2026-04-20 04:38 | 38.11005 | -84.52258 | 2788 ft | 116 kts | 230° |
| 2026-04-20 04:39 | 38.10400 | -84.52945 | 2619 ft | 117 kts | 230° |
| 2026-04-20 04:39 | 38.09792 | -84.53624 | 2474 ft | 115 kts | 229° |
| 2026-04-20 04:39 | 38.09190 | -84.54295 | 2256 ft | 115 kts | 229° |
| 2026-04-20 04:39 | 38.08592 | -84.54968 | 2154 ft | 115 kts | 229° |
| 2026-04-20 04:40 | 38.07992 | -84.55650 | 2002 ft | 116 kts | 227° |
| 2026-04-20 04:40 | 38.07372 | -84.56334 | 1861 ft | 117 kts | 225° |
| 2026-04-20 04:40 | 38.06766 | -84.57023 | 1703 ft | 118 kts | 224° |
| 2026-04-20 04:40 | 38.06152 | -84.57715 | 1602 ft | 120 kts | 223° |
| 2026-04-20 04:41 | 38.05531 | -84.58415 | 1435 ft | 120 kts | 224° |
| 2026-04-20 04:41 | 38.04908 | -84.59118 | 1223 ft | 120 kts | 223° |
| 2026-04-20 04:41 | 38.04285 | -84.59815 | 1041 ft | 119 kts | 223° |
| 2026-04-20 04:41 | 38.03687 | -84.60482 | 966 ft | 101 kts | 222° |
| 2026-04-20 04:42 | 38.03379 | -84.60826 | 954 ft | 10 kts | 221° |
| 2026-04-20 04:42 | 38.03315 | -84.60813 | 953 ft | 8 kts | 129° |
| 2026-04-20 04:42 | 38.03298 | -84.60786 | 953 ft | 0 kts | 126° |
| 2026-04-20 04:42 | 38.03310 | -84.60757 | 953 ft | 10 kts | 40° |
| 2026-04-20 04:43 | 38.03370 | -84.60693 | 956 ft | 12 kts | 42° |
| 2026-04-20 04:43 | 38.03444 | -84.60611 | 959 ft | 15 kts | 41° |
| 2026-04-20 04:43 | 38.03531 | -84.60515 | 963 ft | 17 kts | 41° |
| 2026-04-20 04:43 | 38.03561 | -84.60455 | 964 ft | 6 kts | 82° |
| 2026-04-20 04:44 | 38.03595 | -84.60400 | 965 ft | 9 kts | 37° |
| 2026-04-20 04:44 | 38.03639 | -84.60331 | 967 ft | 11 kts | 103° |
| 2026-04-20 04:44 | 38.03566 | -84.60231 | 968 ft | 20 kts | 131° |
| 2026-04-20 04:44 | 38.03441 | -84.60098 | 969 ft | 25 kts | 175° |
| 2026-04-20 04:45 | 38.03327 | -84.60053 | 967 ft | 13 kts | 110° |
| 2026-04-20 04:45 | 38.03319 | -84.60029 | 968 ft | 0 kts | 121° |